sensor_id;sensor_type;location;lat;lon;timestamp;P1;durP1;ratioP1;P2;durP2;ratioP2
42514;SDS011;28144;49.920;18.730;2023-06-14T00:01:57;11.40;;;7.87;;
42514;SDS011;28144;49.920;18.730;2023-06-14T00:04:23;13.03;;;8.40;;
42514;SDS011;28144;49.920;18.730;2023-06-14T00:06:50;12.23;;;8.57;;
42514;SDS011;28144;49.920;18.730;2023-06-14T00:09:16;12.80;;;8.60;;
42514;SDS011;28144;49.920;18.730;2023-06-14T00:11:43;12.55;;;8.32;;
42514;SDS011;28144;49.920;18.730;2023-06-14T00:14:09;13.75;;;8.82;;
42514;SDS011;28144;49.920;18.730;2023-06-14T00:16:35;20.27;;;8.98;;
42514;SDS011;28144;49.920;18.730;2023-06-14T00:19:02;16.85;;;9.38;;
42514;SDS011;28144;49.920;18.730;2023-06-14T00:21:31;14.53;;;9.70;;
42514;SDS011;28144;49.920;18.730;2023-06-14T00:23:57;23.20;;;11.27;;
42514;SDS011;28144;49.920;18.730;2023-06-14T00:26:23;16.98;;;9.85;;
42514;SDS011;28144;49.920;18.730;2023-06-14T00:28:49;18.50;;;10.20;;
42514;SDS011;28144;49.920;18.730;2023-06-14T00:31:15;20.42;;;11.77;;
42514;SDS011;28144;49.920;18.730;2023-06-14T00:33:41;22.10;;;11.77;;
42514;SDS011;28144;49.920;18.730;2023-06-14T00:36:06;21.87;;;11.50;;
42514;SDS011;28144;49.920;18.730;2023-06-14T00:38:32;17.90;;;12.47;;
42514;SDS011;28144;49.920;18.730;2023-06-14T00:40:58;25.23;;;13.30;;
42514;SDS011;28144;49.920;18.730;2023-06-14T00:43:23;24.67;;;15.20;;
42514;SDS011;28144;49.920;18.730;2023-06-14T00:45:49;31.67;;;15.18;;
42514;SDS011;28144;49.920;18.730;2023-06-14T00:48:16;27.90;;;15.18;;
42514;SDS011;28144;49.920;18.730;2023-06-14T00:50:42;30.20;;;16.40;;
42514;SDS011;28144;49.920;18.730;2023-06-14T00:53:14;31.70;;;16.77;;
42514;SDS011;28144;49.920;18.730;2023-06-14T00:55:41;34.63;;;18.77;;
42514;SDS011;28144;49.920;18.730;2023-06-14T00:58:06;37.53;;;20.10;;
42514;SDS011;28144;49.920;18.730;2023-06-14T01:00:33;31.40;;;17.85;;
42514;SDS011;28144;49.920;18.730;2023-06-14T01:02:58;30.63;;;18.70;;
42514;SDS011;28144;49.920;18.730;2023-06-14T01:05:25;33.30;;;17.40;;
42514;SDS011;28144;49.920;18.730;2023-06-14T01:10:37;28.03;;;13.80;;
42514;SDS011;28144;49.920;18.730;2023-06-14T01:13:25;30.10;;;16.70;;
42514;SDS011;28144;49.920;18.730;2023-06-14T01:15:55;35.30;;;21.40;;
42514;SDS011;28144;49.920;18.730;2023-06-14T01:18:21;35.83;;;21.38;;
42514;SDS011;28144;49.920;18.730;2023-06-14T01:20:49;30.30;;;20.17;;
42514;SDS011;28144;49.920;18.730;2023-06-14T01:23:19;32.73;;;20.97;;
42514;SDS011;28144;49.920;18.730;2023-06-14T01:25:46;44.03;;;21.80;;
42514;SDS011;28144;49.920;18.730;2023-06-14T01:28:13;37.78;;;21.20;;
42514;SDS011;28144;49.920;18.730;2023-06-14T01:30:42;27.87;;;14.87;;
42514;SDS011;28144;49.920;18.730;2023-06-14T01:33:24;34.33;;;22.23;;
42514;SDS011;28144;49.920;18.730;2023-06-14T01:35:52;34.23;;;19.80;;
42514;SDS011;28144;49.920;18.730;2023-06-14T01:38:19;32.35;;;20.60;;
42514;SDS011;28144;49.920;18.730;2023-06-14T01:40:47;31.93;;;18.93;;
42514;SDS011;28144;49.920;18.730;2023-06-14T01:45:40;35.03;;;20.60;;
42514;SDS011;28144;49.920;18.730;2023-06-14T01:48:07;31.33;;;21.17;;
42514;SDS011;28144;49.920;18.730;2023-06-14T01:50:33;31.33;;;20.27;;
42514;SDS011;28144;49.920;18.730;2023-06-14T01:52:59;29.42;;;19.10;;
42514;SDS011;28144;49.920;18.730;2023-06-14T01:55:25;34.38;;;20.83;;
42514;SDS011;28144;49.920;18.730;2023-06-14T01:57:52;36.17;;;21.92;;
42514;SDS011;28144;49.920;18.730;2023-06-14T02:00:18;31.70;;;20.48;;
42514;SDS011;28144;49.920;18.730;2023-06-14T02:02:44;31.70;;;19.05;;
42514;SDS011;28144;49.920;18.730;2023-06-14T02:07:37;35.27;;;19.03;;
42514;SDS011;28144;49.920;18.730;2023-06-14T02:10:03;28.25;;;17.63;;
42514;SDS011;28144;49.920;18.730;2023-06-14T02:12:29;27.88;;;19.35;;
42514;SDS011;28144;49.920;18.730;2023-06-14T02:14:55;34.95;;;19.10;;
42514;SDS011;28144;49.920;18.730;2023-06-14T02:17:21;26.07;;;18.57;;
42514;SDS011;28144;49.920;18.730;2023-06-14T02:19:48;28.65;;;19.58;;
42514;SDS011;28144;49.920;18.730;2023-06-14T02:22:14;30.85;;;19.25;;
42514;SDS011;28144;49.920;18.730;2023-06-14T02:27:06;30.13;;;18.75;;
42514;SDS011;28144;49.920;18.730;2023-06-14T02:29:33;31.83;;;19.23;;
42514;SDS011;28144;49.920;18.730;2023-06-14T02:31:59;28.70;;;18.23;;
42514;SDS011;28144;49.920;18.730;2023-06-14T02:34:25;31.03;;;19.70;;
42514;SDS011;28144;49.920;18.730;2023-06-14T02:36:51;26.33;;;19.97;;
42514;SDS011;28144;49.920;18.730;2023-06-14T02:39:18;29.93;;;20.73;;
42514;SDS011;28144;49.920;18.730;2023-06-14T02:41:46;30.43;;;20.53;;
42514;SDS011;28144;49.920;18.730;2023-06-14T02:44:13;30.23;;;20.10;;
42514;SDS011;28144;49.920;18.730;2023-06-14T02:46:39;29.73;;;20.17;;
42514;SDS011;28144;49.920;18.730;2023-06-14T02:49:05;25.95;;;18.75;;
42514;SDS011;28144;49.920;18.730;2023-06-14T02:51:30;35.73;;;20.87;;
42514;SDS011;28144;49.920;18.730;2023-06-14T02:53:56;27.67;;;19.60;;
42514;SDS011;28144;49.920;18.730;2023-06-14T02:56:22;29.37;;;20.07;;
42514;SDS011;28144;49.920;18.730;2023-06-14T02:58:48;34.00;;;20.17;;
42514;SDS011;28144;49.920;18.730;2023-06-14T03:01:14;31.07;;;21.30;;
42514;SDS011;28144;49.920;18.730;2023-06-14T03:03:40;27.45;;;19.05;;
42514;SDS011;28144;49.920;18.730;2023-06-14T03:06:05;28.30;;;19.43;;
42514;SDS011;28144;49.920;18.730;2023-06-14T03:08:33;28.07;;;19.80;;
42514;SDS011;28144;49.920;18.730;2023-06-14T03:11:06;31.83;;;20.30;;
42514;SDS011;28144;49.920;18.730;2023-06-14T03:13:36;29.93;;;19.57;;
42514;SDS011;28144;49.920;18.730;2023-06-14T03:16:02;28.77;;;20.43;;
42514;SDS011;28144;49.920;18.730;2023-06-14T03:18:29;26.55;;;17.77;;
42514;SDS011;28144;49.920;18.730;2023-06-14T03:20:56;29.80;;;17.47;;
42514;SDS011;28144;49.920;18.730;2023-06-14T03:23:24;25.93;;;18.50;;
42514;SDS011;28144;49.920;18.730;2023-06-14T03:25:50;30.00;;;18.23;;
42514;SDS011;28144;49.920;18.730;2023-06-14T03:28:17;34.28;;;20.02;;
42514;SDS011;28144;49.920;18.730;2023-06-14T03:30:42;27.00;;;18.13;;
42514;SDS011;28144;49.920;18.730;2023-06-14T03:33:08;42.37;;;20.77;;
42514;SDS011;28144;49.920;18.730;2023-06-14T03:35:34;28.40;;;18.60;;
42514;SDS011;28144;49.920;18.730;2023-06-14T03:38:00;26.10;;;18.17;;
42514;SDS011;28144;49.920;18.730;2023-06-14T03:40:27;27.17;;;17.37;;
42514;SDS011;28144;49.920;18.730;2023-06-14T03:42:54;36.08;;;19.05;;
42514;SDS011;28144;49.920;18.730;2023-06-14T03:45:20;24.85;;;17.25;;
42514;SDS011;28144;49.920;18.730;2023-06-14T03:47:46;27.70;;;18.20;;
42514;SDS011;28144;49.920;18.730;2023-06-14T03:50:11;25.60;;;17.47;;
42514;SDS011;28144;49.920;18.730;2023-06-14T03:52:37;28.30;;;20.20;;
42514;SDS011;28144;49.920;18.730;2023-06-14T03:55:03;28.97;;;20.00;;
42514;SDS011;28144;49.920;18.730;2023-06-14T03:57:30;34.15;;;20.25;;
42514;SDS011;28144;49.920;18.730;2023-06-14T03:59:56;31.77;;;20.50;;
42514;SDS011;28144;49.920;18.730;2023-06-14T04:04:48;29.77;;;18.90;;
42514;SDS011;28144;49.920;18.730;2023-06-14T04:07:15;29.02;;;19.10;;
42514;SDS011;28144;49.920;18.730;2023-06-14T04:09:44;27.07;;;18.63;;
42514;SDS011;28144;49.920;18.730;2023-06-14T04:12:10;28.92;;;19.90;;
42514;SDS011;28144;49.920;18.730;2023-06-14T04:14:39;31.97;;;20.90;;
42514;SDS011;28144;49.920;18.730;2023-06-14T04:19:31;30.95;;;18.85;;
42514;SDS011;28144;49.920;18.730;2023-06-14T04:21:57;31.88;;;20.77;;
42514;SDS011;28144;49.920;18.730;2023-06-14T04:24:27;31.13;;;20.80;;
42514;SDS011;28144;49.920;18.730;2023-06-14T04:26:58;26.90;;;19.90;;
42514;SDS011;28144;49.920;18.730;2023-06-14T04:31:53;30.30;;;19.53;;
42514;SDS011;28144;49.920;18.730;2023-06-14T04:34:20;28.20;;;19.17;;
42514;SDS011;28144;49.920;18.730;2023-06-14T04:36:46;30.23;;;20.93;;
42514;SDS011;28144;49.920;18.730;2023-06-14T04:39:18;28.07;;;19.40;;
42514;SDS011;28144;49.920;18.730;2023-06-14T04:41:45;27.90;;;20.37;;
42514;SDS011;28144;49.920;18.730;2023-06-14T04:44:12;29.17;;;20.05;;
42514;SDS011;28144;49.920;18.730;2023-06-14T04:46:38;28.63;;;19.53;;
42514;SDS011;28144;49.920;18.730;2023-06-14T04:49:12;32.25;;;20.27;;
42514;SDS011;28144;49.920;18.730;2023-06-14T04:51:39;31.27;;;20.00;;
42514;SDS011;28144;49.920;18.730;2023-06-14T04:54:06;30.25;;;20.73;;
42514;SDS011;28144;49.920;18.730;2023-06-14T04:56:35;33.10;;;19.97;;
42514;SDS011;28144;49.920;18.730;2023-06-14T04:59:03;27.23;;;19.23;;
42514;SDS011;28144;49.920;18.730;2023-06-14T05:01:31;30.27;;;19.35;;
42514;SDS011;28144;49.920;18.730;2023-06-14T05:03:58;32.17;;;20.70;;
42514;SDS011;28144;49.920;18.730;2023-06-14T05:06:24;34.83;;;21.60;;
42514;SDS011;28144;49.920;18.730;2023-06-14T05:08:51;32.90;;;21.35;;
42514;SDS011;28144;49.920;18.730;2023-06-14T05:11:17;32.47;;;21.23;;
42514;SDS011;28144;49.920;18.730;2023-06-14T05:13:43;34.83;;;20.63;;
42514;SDS011;28144;49.920;18.730;2023-06-14T05:16:10;31.05;;;19.35;;
42514;SDS011;28144;49.920;18.730;2023-06-14T05:21:02;36.50;;;21.70;;
42514;SDS011;28144;49.920;18.730;2023-06-14T05:23:30;30.98;;;20.85;;
42514;SDS011;28144;49.920;18.730;2023-06-14T05:25:55;38.27;;;20.97;;
42514;SDS011;28144;49.920;18.730;2023-06-14T05:28:22;36.50;;;22.25;;
42514;SDS011;28144;49.920;18.730;2023-06-14T05:30:48;31.02;;;21.60;;
42514;SDS011;28144;49.920;18.730;2023-06-14T05:33:14;32.83;;;20.73;;
42514;SDS011;28144;49.920;18.730;2023-06-14T05:35:40;42.03;;;21.70;;
42514;SDS011;28144;49.920;18.730;2023-06-14T05:38:05;35.40;;;23.07;;
42514;SDS011;28144;49.920;18.730;2023-06-14T05:40:33;33.50;;;22.05;;
42514;SDS011;28144;49.920;18.730;2023-06-14T05:42:59;29.52;;;22.13;;
42514;SDS011;28144;49.920;18.730;2023-06-14T05:45:24;30.57;;;22.17;;
42514;SDS011;28144;49.920;18.730;2023-06-14T05:47:51;32.88;;;21.63;;
42514;SDS011;28144;49.920;18.730;2023-06-14T05:50:17;29.73;;;20.42;;
42514;SDS011;28144;49.920;18.730;2023-06-14T05:52:42;39.33;;;21.70;;
42514;SDS011;28144;49.920;18.730;2023-06-14T05:55:08;28.77;;;21.10;;
42514;SDS011;28144;49.920;18.730;2023-06-14T05:57:37;31.35;;;20.65;;
42514;SDS011;28144;49.920;18.730;2023-06-14T06:00:03;30.80;;;21.15;;
42514;SDS011;28144;49.920;18.730;2023-06-14T06:02:42;32.38;;;20.75;;
42514;SDS011;28144;49.920;18.730;2023-06-14T06:05:09;27.45;;;19.02;;
42514;SDS011;28144;49.920;18.730;2023-06-14T06:07:35;24.63;;;18.17;;
42514;SDS011;28144;49.920;18.730;2023-06-14T06:10:02;29.55;;;19.60;;
42514;SDS011;28144;49.920;18.730;2023-06-14T06:12:28;26.15;;;17.85;;
42514;SDS011;28144;49.920;18.730;2023-06-14T06:14:54;24.45;;;15.88;;
42514;SDS011;28144;49.920;18.730;2023-06-14T06:17:20;26.80;;;16.77;;
42514;SDS011;28144;49.920;18.730;2023-06-14T06:19:46;29.93;;;15.13;;
42514;SDS011;28144;49.920;18.730;2023-06-14T06:22:12;27.80;;;14.30;;
42514;SDS011;28144;49.920;18.730;2023-06-14T06:24:38;22.25;;;13.93;;
42514;SDS011;28144;49.920;18.730;2023-06-14T06:27:03;26.20;;;16.80;;
42514;SDS011;28144;49.920;18.730;2023-06-14T06:29:30;31.95;;;18.15;;
42514;SDS011;28144;49.920;18.730;2023-06-14T06:31:55;33.20;;;17.43;;
42514;SDS011;28144;49.920;18.730;2023-06-14T06:34:21;27.27;;;16.73;;
42514;SDS011;28144;49.920;18.730;2023-06-14T06:36:47;25.60;;;17.20;;
42514;SDS011;28144;49.920;18.730;2023-06-14T06:39:13;27.10;;;17.10;;
42514;SDS011;28144;49.920;18.730;2023-06-14T06:41:40;24.75;;;16.30;;
42514;SDS011;28144;49.920;18.730;2023-06-14T06:44:06;31.25;;;20.65;;
42514;SDS011;28144;49.920;18.730;2023-06-14T06:46:32;28.13;;;18.08;;
42514;SDS011;28144;49.920;18.730;2023-06-14T06:48:59;30.23;;;18.95;;
42514;SDS011;28144;49.920;18.730;2023-06-14T06:51:25;34.85;;;21.88;;
42514;SDS011;28144;49.920;18.730;2023-06-14T06:53:55;35.20;;;20.60;;
42514;SDS011;28144;49.920;18.730;2023-06-14T06:56:21;27.95;;;19.38;;
42514;SDS011;28144;49.920;18.730;2023-06-14T06:58:49;32.88;;;16.65;;
42514;SDS011;28144;49.920;18.730;2023-06-14T07:01:15;27.75;;;18.30;;
42514;SDS011;28144;49.920;18.730;2023-06-14T07:03:41;28.92;;;19.45;;
42514;SDS011;28144;49.920;18.730;2023-06-14T07:06:07;30.03;;;17.20;;
42514;SDS011;28144;49.920;18.730;2023-06-14T07:08:33;24.23;;;16.67;;
42514;SDS011;28144;49.920;18.730;2023-06-14T07:10:59;23.15;;;14.50;;
42514;SDS011;28144;49.920;18.730;2023-06-14T07:13:25;23.38;;;13.93;;
42514;SDS011;28144;49.920;18.730;2023-06-14T07:15:53;26.40;;;18.13;;
42514;SDS011;28144;49.920;18.730;2023-06-14T07:18:20;23.38;;;14.93;;
42514;SDS011;28144;49.920;18.730;2023-06-14T07:20:47;21.70;;;15.63;;
42514;SDS011;28144;49.920;18.730;2023-06-14T07:23:13;22.48;;;14.98;;
42514;SDS011;28144;49.920;18.730;2023-06-14T07:25:38;22.27;;;14.80;;
42514;SDS011;28144;49.920;18.730;2023-06-14T07:28:04;26.33;;;16.30;;
42514;SDS011;28144;49.920;18.730;2023-06-14T07:30:30;25.15;;;16.30;;
42514;SDS011;28144;49.920;18.730;2023-06-14T07:32:56;23.50;;;17.25;;
42514;SDS011;28144;49.920;18.730;2023-06-14T07:35:22;25.17;;;14.67;;
42514;SDS011;28144;49.920;18.730;2023-06-14T07:37:48;20.65;;;14.35;;
42514;SDS011;28144;49.920;18.730;2023-06-14T07:40:15;24.63;;;15.27;;
42514;SDS011;28144;49.920;18.730;2023-06-14T07:42:41;23.38;;;14.25;;
42514;SDS011;28144;49.920;18.730;2023-06-14T07:45:07;21.10;;;11.93;;
42514;SDS011;28144;49.920;18.730;2023-06-14T07:47:33;21.80;;;13.65;;
42514;SDS011;28144;49.920;18.730;2023-06-14T07:49:59;20.48;;;12.73;;
42514;SDS011;28144;49.920;18.730;2023-06-14T07:52:24;18.70;;;12.47;;
42514;SDS011;28144;49.920;18.730;2023-06-14T07:54:50;18.52;;;11.00;;
42514;SDS011;28144;49.920;18.730;2023-06-14T07:57:16;22.63;;;12.07;;
42514;SDS011;28144;49.920;18.730;2023-06-14T07:59:42;21.65;;;12.10;;
42514;SDS011;28144;49.920;18.730;2023-06-14T08:02:08;20.17;;;12.50;;
42514;SDS011;28144;49.920;18.730;2023-06-14T08:04:33;18.45;;;12.95;;
42514;SDS011;28144;49.920;18.730;2023-06-14T08:06:59;25.20;;;14.47;;
42514;SDS011;28144;49.920;18.730;2023-06-14T08:09:26;25.20;;;14.20;;
42514;SDS011;28144;49.920;18.730;2023-06-14T08:11:53;27.55;;;14.30;;
42514;SDS011;28144;49.920;18.730;2023-06-14T08:14:19;20.02;;;11.85;;
42514;SDS011;28144;49.920;18.730;2023-06-14T08:16:45;22.50;;;13.37;;
42514;SDS011;28144;49.920;18.730;2023-06-14T08:19:11;30.58;;;13.82;;
42514;SDS011;28144;49.920;18.730;2023-06-14T08:21:36;25.07;;;14.17;;
42514;SDS011;28144;49.920;18.730;2023-06-14T08:24:02;30.27;;;12.87;;
42514;SDS011;28144;49.920;18.730;2023-06-14T08:26:29;20.85;;;12.30;;
42514;SDS011;28144;49.920;18.730;2023-06-14T08:28:55;28.95;;;13.20;;
42514;SDS011;28144;49.920;18.730;2023-06-14T08:31:21;22.23;;;13.23;;
42514;SDS011;28144;49.920;18.730;2023-06-14T08:33:47;24.75;;;14.02;;
42514;SDS011;28144;49.920;18.730;2023-06-14T08:36:13;20.97;;;13.40;;
42514;SDS011;28144;49.920;18.730;2023-06-14T08:38:39;21.30;;;12.90;;
42514;SDS011;28144;49.920;18.730;2023-06-14T08:41:05;21.37;;;12.70;;
42514;SDS011;28144;49.920;18.730;2023-06-14T08:43:34;27.35;;;15.05;;
42514;SDS011;28144;49.920;18.730;2023-06-14T08:46:03;25.08;;;15.18;;
42514;SDS011;28144;49.920;18.730;2023-06-14T08:48:29;34.10;;;17.48;;
42514;SDS011;28144;49.920;18.730;2023-06-14T08:50:59;33.40;;;17.77;;
42514;SDS011;28144;49.920;18.730;2023-06-14T08:53:30;24.58;;;14.07;;
42514;SDS011;28144;49.920;18.730;2023-06-14T08:55:57;29.67;;;14.93;;
42514;SDS011;28144;49.920;18.730;2023-06-14T08:58:27;27.10;;;14.00;;
42514;SDS011;28144;49.920;18.730;2023-06-14T09:00:59;25.27;;;13.90;;
42514;SDS011;28144;49.920;18.730;2023-06-14T09:03:27;21.85;;;12.68;;
42514;SDS011;28144;49.920;18.730;2023-06-14T09:05:56;15.88;;;11.93;;
42514;SDS011;28144;49.920;18.730;2023-06-14T09:12:06;17.38;;;11.57;;
42514;SDS011;28144;49.920;18.730;2023-06-14T09:14:35;19.00;;;11.20;;
42514;SDS011;28144;49.920;18.730;2023-06-14T09:17:03;20.15;;;11.70;;
42514;SDS011;28144;49.920;18.730;2023-06-14T09:21:55;19.60;;;11.07;;
42514;SDS011;28144;49.920;18.730;2023-06-14T09:24:23;23.88;;;11.38;;
42514;SDS011;28144;49.920;18.730;2023-06-14T09:26:50;21.25;;;12.32;;
42514;SDS011;28144;49.920;18.730;2023-06-14T09:29:17;17.17;;;11.38;;
42514;SDS011;28144;49.920;18.730;2023-06-14T09:31:45;23.52;;;11.85;;
42514;SDS011;28144;49.920;18.730;2023-06-14T09:34:12;20.33;;;12.43;;
42514;SDS011;28144;49.920;18.730;2023-06-14T09:36:38;18.13;;;9.53;;
42514;SDS011;28144;49.920;18.730;2023-06-14T09:39:07;19.08;;;10.25;;
42514;SDS011;28144;49.920;18.730;2023-06-14T09:41:40;18.60;;;10.60;;
42514;SDS011;28144;49.920;18.730;2023-06-14T09:44:07;18.10;;;9.23;;
42514;SDS011;28144;49.920;18.730;2023-06-14T09:49:00;18.23;;;11.10;;
42514;SDS011;28144;49.920;18.730;2023-06-14T09:51:27;19.23;;;10.63;;
42514;SDS011;28144;49.920;18.730;2023-06-14T09:53:59;20.23;;;10.70;;
42514;SDS011;28144;49.920;18.730;2023-06-14T09:56:34;18.80;;;10.65;;
42514;SDS011;28144;49.920;18.730;2023-06-14T09:59:01;22.52;;;11.85;;
42514;SDS011;28144;49.920;18.730;2023-06-14T10:01:35;17.67;;;11.23;;
42514;SDS011;28144;49.920;18.730;2023-06-14T10:04:04;24.73;;;13.98;;
42514;SDS011;28144;49.920;18.730;2023-06-14T10:06:31;21.20;;;13.25;;
42514;SDS011;28144;49.920;18.730;2023-06-14T10:11:27;25.55;;;14.00;;
42514;SDS011;28144;49.920;18.730;2023-06-14T10:13:53;20.33;;;12.90;;
42514;SDS011;28144;49.920;18.730;2023-06-14T10:16:23;20.90;;;12.73;;
42514;SDS011;28144;49.920;18.730;2023-06-14T10:18:58;20.77;;;13.48;;
42514;SDS011;28144;49.920;18.730;2023-06-14T10:24:03;24.43;;;14.27;;
42514;SDS011;28144;49.920;18.730;2023-06-14T10:26:30;19.85;;;14.13;;
42514;SDS011;28144;49.920;18.730;2023-06-14T10:28:58;18.23;;;11.43;;
42514;SDS011;28144;49.920;18.730;2023-06-14T10:31:46;17.70;;;12.20;;
42514;SDS011;28144;49.920;18.730;2023-06-14T10:34:28;17.77;;;11.52;;
42514;SDS011;28144;49.920;18.730;2023-06-14T10:37:05;17.50;;;12.57;;
42514;SDS011;28144;49.920;18.730;2023-06-14T10:39:32;19.42;;;12.55;;
42514;SDS011;28144;49.920;18.730;2023-06-14T10:42:03;27.42;;;14.30;;
42514;SDS011;28144;49.920;18.730;2023-06-14T10:44:32;19.63;;;13.85;;
42514;SDS011;28144;49.920;18.730;2023-06-14T10:47:26;19.48;;;14.55;;
42514;SDS011;28144;49.920;18.730;2023-06-14T10:50:06;24.77;;;12.68;;
42514;SDS011;28144;49.920;18.730;2023-06-14T10:52:34;25.98;;;14.88;;
42514;SDS011;28144;49.920;18.730;2023-06-14T10:57:41;26.40;;;15.73;;
42514;SDS011;28144;49.920;18.730;2023-06-14T11:00:09;24.80;;;14.38;;
42514;SDS011;28144;49.920;18.730;2023-06-14T11:11:00;26.42;;;17.73;;
42514;SDS011;28144;49.920;18.730;2023-06-14T11:13:26;31.15;;;19.73;;
42514;SDS011;28144;49.920;18.730;2023-06-14T11:15:52;30.45;;;17.83;;
42514;SDS011;28144;49.920;18.730;2023-06-14T11:18:19;29.00;;;16.92;;
42514;SDS011;28144;49.920;18.730;2023-06-14T11:20:49;24.13;;;16.50;;
42514;SDS011;28144;49.920;18.730;2023-06-14T11:23:15;25.77;;;15.63;;
42514;SDS011;28144;49.920;18.730;2023-06-14T11:25:41;24.70;;;16.13;;
42514;SDS011;28144;49.920;18.730;2023-06-14T11:28:07;18.35;;;14.45;;
42514;SDS011;28144;49.920;18.730;2023-06-14T11:30:33;21.10;;;14.63;;
42514;SDS011;28144;49.920;18.730;2023-06-14T11:32:59;23.77;;;14.40;;
42514;SDS011;28144;49.920;18.730;2023-06-14T11:35:25;22.67;;;14.90;;
42514;SDS011;28144;49.920;18.730;2023-06-14T11:40:25;23.20;;;14.95;;
42514;SDS011;28144;49.920;18.730;2023-06-14T11:42:58;26.00;;;17.10;;
42514;SDS011;28144;49.920;18.730;2023-06-14T11:45:25;22.60;;;15.23;;
42514;SDS011;28144;49.920;18.730;2023-06-14T11:47:50;23.47;;;14.53;;
42514;SDS011;28144;49.920;18.730;2023-06-14T11:50:16;22.25;;;13.95;;
42514;SDS011;28144;49.920;18.730;2023-06-14T11:52:42;20.37;;;13.67;;
42514;SDS011;28144;49.920;18.730;2023-06-14T11:55:08;17.58;;;11.80;;
42514;SDS011;28144;49.920;18.730;2023-06-14T11:57:34;17.03;;;10.17;;
42514;SDS011;28144;49.920;18.730;2023-06-14T12:00:05;13.82;;;10.43;;
42514;SDS011;28144;49.920;18.730;2023-06-14T12:02:38;15.13;;;11.18;;
42514;SDS011;28144;49.920;18.730;2023-06-14T12:05:06;16.50;;;10.65;;
42514;SDS011;28144;49.920;18.730;2023-06-14T12:07:36;19.77;;;11.32;;
42514;SDS011;28144;49.920;18.730;2023-06-14T12:10:06;15.30;;;10.35;;
42514;SDS011;28144;49.920;18.730;2023-06-14T12:12:39;15.15;;;10.57;;
42514;SDS011;28144;49.920;18.730;2023-06-14T12:15:06;20.33;;;11.38;;
42514;SDS011;28144;49.920;18.730;2023-06-14T12:17:39;14.75;;;9.55;;
42514;SDS011;28144;49.920;18.730;2023-06-14T12:20:09;11.60;;;8.65;;
42514;SDS011;28144;49.920;18.730;2023-06-14T12:22:36;11.65;;;8.55;;
42514;SDS011;28144;49.920;18.730;2023-06-14T12:25:04;12.70;;;9.15;;
42514;SDS011;28144;49.920;18.730;2023-06-14T12:27:30;14.77;;;9.30;;
42514;SDS011;28144;49.920;18.730;2023-06-14T12:29:59;11.50;;;8.05;;
42514;SDS011;28144;49.920;18.730;2023-06-14T12:32:29;9.52;;;7.47;;
42514;SDS011;28144;49.920;18.730;2023-06-14T12:34:55;15.90;;;7.40;;
42514;SDS011;28144;49.920;18.730;2023-06-14T12:37:20;13.00;;;7.70;;
42514;SDS011;28144;49.920;18.730;2023-06-14T12:39:47;10.55;;;8.20;;
42514;SDS011;28144;49.920;18.730;2023-06-14T12:42:12;15.47;;;11.07;;
42514;SDS011;28144;49.920;18.730;2023-06-14T12:44:40;10.43;;;8.43;;
42514;SDS011;28144;49.920;18.730;2023-06-14T12:47:09;15.10;;;7.28;;
42514;SDS011;28144;49.920;18.730;2023-06-14T12:49:35;14.93;;;8.27;;
42514;SDS011;28144;49.920;18.730;2023-06-14T12:52:00;10.30;;;7.47;;
42514;SDS011;28144;49.920;18.730;2023-06-14T12:54:26;9.15;;;7.05;;
42514;SDS011;28144;49.920;18.730;2023-06-14T12:56:52;12.80;;;6.60;;
42514;SDS011;28144;49.920;18.730;2023-06-14T12:59:18;7.70;;;5.13;;
42514;SDS011;28144;49.920;18.730;2023-06-14T13:01:44;7.53;;;5.37;;
42514;SDS011;28144;49.920;18.730;2023-06-14T13:04:10;7.28;;;5.43;;
42514;SDS011;28144;49.920;18.730;2023-06-14T13:06:36;7.75;;;5.57;;
42514;SDS011;28144;49.920;18.730;2023-06-14T13:09:02;7.55;;;4.95;;
42514;SDS011;28144;49.920;18.730;2023-06-14T13:11:29;6.55;;;4.68;;
42514;SDS011;28144;49.920;18.730;2023-06-14T13:13:55;7.22;;;5.03;;
42514;SDS011;28144;49.920;18.730;2023-06-14T13:16:21;7.38;;;5.53;;
42514;SDS011;28144;49.920;18.730;2023-06-14T13:18:47;9.98;;;5.70;;
42514;SDS011;28144;49.920;18.730;2023-06-14T13:21:13;6.90;;;5.53;;
42514;SDS011;28144;49.920;18.730;2023-06-14T13:23:38;11.65;;;6.75;;
42514;SDS011;28144;49.920;18.730;2023-06-14T13:26:04;15.70;;;6.63;;
42514;SDS011;28144;49.920;18.730;2023-06-14T13:28:34;8.18;;;4.57;;
42514;SDS011;28144;49.920;18.730;2023-06-14T13:31:00;7.82;;;4.50;;
42514;SDS011;28144;49.920;18.730;2023-06-14T13:33:26;6.18;;;4.60;;
42514;SDS011;28144;49.920;18.730;2023-06-14T13:35:52;5.45;;;4.55;;
42514;SDS011;28144;49.920;18.730;2023-06-14T13:38:18;9.48;;;5.13;;
42514;SDS011;28144;49.920;18.730;2023-06-14T13:40:44;6.33;;;4.57;;
42514;SDS011;28144;49.920;18.730;2023-06-14T13:43:10;5.13;;;4.13;;
42514;SDS011;28144;49.920;18.730;2023-06-14T13:45:35;6.60;;;4.73;;
42514;SDS011;28144;49.920;18.730;2023-06-14T13:48:01;5.65;;;4.30;;
42514;SDS011;28144;49.920;18.730;2023-06-14T13:50:27;5.00;;;4.20;;
42514;SDS011;28144;49.920;18.730;2023-06-14T13:52:53;7.47;;;4.75;;
42514;SDS011;28144;49.920;18.730;2023-06-14T13:55:18;9.27;;;3.93;;
42514;SDS011;28144;49.920;18.730;2023-06-14T13:57:44;5.18;;;4.57;;
42514;SDS011;28144;49.920;18.730;2023-06-14T14:00:10;7.00;;;4.65;;
42514;SDS011;28144;49.920;18.730;2023-06-14T14:02:37;7.63;;;5.50;;
42514;SDS011;28144;49.920;18.730;2023-06-14T14:05:03;8.40;;;5.20;;
42514;SDS011;28144;49.920;18.730;2023-06-14T14:07:29;4.90;;;4.40;;
42514;SDS011;28144;49.920;18.730;2023-06-14T14:09:55;6.65;;;4.63;;
42514;SDS011;28144;49.920;18.730;2023-06-14T14:12:23;7.80;;;5.35;;
42514;SDS011;28144;49.920;18.730;2023-06-14T14:14:50;5.30;;;4.60;;
42514;SDS011;28144;49.920;18.730;2023-06-14T14:22:08;9.68;;;4.20;;
42514;SDS011;28144;49.920;18.730;2023-06-14T14:24:34;5.23;;;4.23;;
42514;SDS011;28144;49.920;18.730;2023-06-14T14:27:00;8.77;;;5.03;;
42514;SDS011;28144;49.920;18.730;2023-06-14T14:29:26;5.50;;;3.70;;
42514;SDS011;28144;49.920;18.730;2023-06-14T14:31:54;6.90;;;4.93;;
42514;SDS011;28144;49.920;18.730;2023-06-14T14:34:22;5.20;;;4.07;;
42514;SDS011;28144;49.920;18.730;2023-06-14T14:36:48;8.10;;;4.43;;
42514;SDS011;28144;49.920;18.730;2023-06-14T14:39:14;4.57;;;3.77;;
42514;SDS011;28144;49.920;18.730;2023-06-14T14:41:40;4.53;;;3.33;;
42514;SDS011;28144;49.920;18.730;2023-06-14T14:44:06;6.17;;;3.40;;
42514;SDS011;28144;49.920;18.730;2023-06-14T14:46:32;3.42;;;3.13;;
42514;SDS011;28144;49.920;18.730;2023-06-14T14:49:01;3.75;;;3.40;;
42514;SDS011;28144;49.920;18.730;2023-06-14T14:51:27;7.40;;;3.83;;
42514;SDS011;28144;49.920;18.730;2023-06-14T14:53:52;8.43;;;4.97;;
42514;SDS011;28144;49.920;18.730;2023-06-14T14:56:18;4.72;;;3.90;;
42514;SDS011;28144;49.920;18.730;2023-06-14T14:58:44;5.50;;;3.60;;
42514;SDS011;28144;49.920;18.730;2023-06-14T15:01:09;5.30;;;4.15;;
42514;SDS011;28144;49.920;18.730;2023-06-14T15:03:35;14.90;;;6.57;;
42514;SDS011;28144;49.920;18.730;2023-06-14T15:06:01;5.75;;;3.92;;